Time;durP1;ratioP1;P1;durP2;ratioP2;P2;SDS_P1;SDS_P2;PMS_P1;PMS_P2;Temp;Humidity;BMP_temperature;BMP_pressure;BME280_temperature;BME280_humidity;BME280_pressure;Samples;Min_cycle;Max_cycle;Signal;HPM_P1;HPM_P2
2023/02/16 00:01:52;;;;;;;;;;;;;;;;;;5095564;28;19969;-66
2023/02/16 00:04:18;;;;;;;;;;;;;;;;;;5095187;28;19955;-66
2023/02/16 00:06:44;;;;;;;;;;;;;;;;;;5095812;28;20049;-66
2023/02/16 00:09:10;;;;;;;;;;;;;;;;;;5095171;28;19988;-68
2023/02/16 00:14:25;;;;;;;;;;;;;;;;;;5095158;28;20020;-67
2023/02/16 00:16:51;;;;;;;;;;;;;;;;;;5095291;28;19994;-67
2023/02/16 00:19:17;;;;;;;;;;;;;;;;;;5094927;28;19957;-66
2023/02/16 00:21:42;;;;;;;;;;;;;;;;;;5094819;28;20066;-66
2023/02/16 00:24:08;;;;;;;;;;;;;;;;;;5094809;28;19951;-67
2023/02/16 00:26:34;;;;;;;;;;;;;;;;;;5094830;28;20463;-67
2023/02/16 00:29:00;;;;;;;;;;;;;;;;;;5094784;28;19950;-66
2023/02/16 00:31:27;;;;;;;;;;;;;;;;;;5095058;28;19950;-66
2023/02/16 00:33:53;;;;;;;;;;;;;;;;;;5094722;28;19951;-66
2023/02/16 00:36:19;;;;;;;;;;;;;;;;;;5094635;28;19954;-66
2023/02/16 00:38:45;;;;;;;;;;;;;;;;;;5095165;28;20345;-67
2023/02/16 00:41:49;;;;;;;;;;;;;;;;;;5094495;28;19970;-66
2023/02/16 00:43:57;;;;;;;;;;;;;;;;;;5094278;28;19989;-66
2023/02/16 00:46:23;;;;;;;;;;;;;;;;;;5094697;28;20003;-67
2023/02/16 00:48:48;;;;;;;;;;;;;;;;;;5094435;28;20033;-67
2023/02/16 00:51:14;;;;;;;;;;;;;;;;;;5093769;28;19950;-66
2023/02/16 00:53:40;;;;;;;;;;;;;;;;;;5094357;28;20426;-66
2023/02/16 00:56:06;;;;;;;;;;;;;;;;;;5094347;28;19941;-66
2023/02/16 00:58:34;;;;;;;;;;;;;;;;;;5094534;28;19949;-66
2023/02/16 01:00:59;;;;;;;;;;;;;;;;;;5094054;28;20513;-67
2023/02/16 01:03:25;;;;;;;;;;;;;;;;;;5094746;28;19951;-66
2023/02/16 01:11:06;;;;;;;;;;;;;;;;;;5094137;28;19950;-67
2023/02/16 01:11:22;;;;;;;;;;;;;;;;;;5093921;28;19988;-66
2023/02/16 01:13:48;;;;;;;;;;;;;;;;;;5094013;28;19966;-65
2023/02/16 01:16:14;;;;;;;;;;;;;;;;;;5094010;28;20338;-67
2023/02/16 01:18:40;;;;;;;;;;;;;;;;;;5093979;28;19945;-67
2023/02/16 01:21:06;;;;;;;;;;;;;;;;;;5093888;28;19968;-66
2023/02/16 01:23:32;;;;;;;;;;;;;;;;;;5094188;28;19951;-67
2023/02/16 01:25:58;;;;;;;;;;;;;;;;;;5094157;28;19949;-66
2023/02/16 01:28:24;;;;;;;;;;;;;;;;;;5093867;28;19943;-66
2023/02/16 01:30:50;;;;;;;;;;;;;;;;;;5094122;28;19988;-66
2023/02/16 01:33:16;;;;;;;;;;;;;;;;;;5093778;28;20045;-66
2023/02/16 01:35:42;;;;;;;;;;;;;;;;;;5094051;28;19977;-66
2023/02/16 01:38:07;;;;;;;;;;;;;;;;;;5093785;28;19947;-66
2023/02/16 01:40:33;;;;;;;;;;;;;;;;;;5093937;28;19958;-67
2023/02/16 01:42:59;;;;;;;;;;;;;;;;;;5093711;28;19954;-67
2023/02/16 01:45:25;;;;;;;;;;;;;;;;;;5093712;28;20064;-66
2023/02/16 01:47:51;;;;;;;;;;;;;;;;;;5094218;28;19943;-66
2023/02/16 01:50:17;;;;;;;;;;;;;;;;;;5093651;28;19950;-66
2023/02/16 01:52:43;;;;;;;;;;;;;;;;;;5094174;28;20388;-65
2023/02/16 01:55:09;;;;;;;;;;;;;;;;;;5093872;28;19950;-65
2023/02/16 01:57:34;;;;;;;;;;;;;;;;;;5093624;28;20411;-67
2023/02/16 02:00:02;;;;;;;;;;;;;;;;;;5093562;28;19954;-66
2023/02/16 02:02:28;;;;;;;;;;;;;;;;;;5094744;28;20402;-67
2023/02/16 02:07:39;;;;;;;;;;;;;;;;;;5097297;28;20568;-66
2023/02/16 02:10:05;;;;;;;;;;;;;;;;;;5097303;28;19983;-66
2023/02/16 02:12:32;;;;;;;;;;;;;;;;;;5097722;28;19951;-67
2023/02/16 02:14:58;;;;;;;;;;;;;;;;;;5097338;28;19965;-67
2023/02/16 02:17:24;;;;;;;;;;;;;;;;;;5097624;28;19999;-66
2023/02/16 02:19:50;;;;;;;;;;;;;;;;;;5097599;28;20000;-65
2023/02/16 02:25:00;;;;;;;;;;;;;;;;;;5097530;28;19952;-67
2023/02/16 02:27:26;;;;;;;;;;;;;;;;;;5097350;28;19956;-66
2023/02/16 02:29:52;;;;;;;;;;;;;;;;;;5097646;28;20001;-67
2023/02/16 02:32:18;;;;;;;;;;;;;;;;;;5097322;28;19956;-67
2023/02/16 02:34:43;;;;;;;;;;;;;;;;;;5097250;28;20460;-66
2023/02/16 02:37:09;;;;;;;;;;;;;;;;;;5097184;28;19956;-67
2023/02/16 02:39:35;;;;;;;;;;;;;;;;;;5097472;28;20419;-67
2023/02/16 02:42:04;;;;;;;;;;;;;;;;;;5097089;28;19968;-66
2023/02/16 02:44:30;;;;;;;;;;;;;;;;;;5096850;28;19961;-66
2023/02/16 02:46:56;;;;;;;;;;;;;;;;;;5096972;28;19946;-67
2023/02/16 02:49:22;;;;;;;;;;;;;;;;;;5097296;28;19950;-68
2023/02/16 02:51:47;;;;;;;;;;;;;;;;;;5096947;28;20045;-67
2023/02/16 03:02:27;;;;;;;;;;;;;;;;;;5096434;28;19971;-66
2023/02/16 03:04:53;;;;;;;;;;;;;;;;;;5096963;28;19949;-67
2023/02/16 03:07:19;;;;;;;;;;;;;;;;;;5096329;28;19951;-67
2023/02/16 03:09:45;;;;;;;;;;;;;;;;;;5096130;28;19988;-67
2023/02/16 03:14:57;;;;;;;;;;;;;;;;;;5094625;28;20279;-66
2023/02/16 03:31:06;;;;;;;;;;;;;;;;;;5095720;28;19990;-66
2023/02/16 03:33:32;;;;;;;;;;;;;;;;;;5095936;28;20352;-67
2023/02/16 03:35:58;;;;;;;;;;;;;;;;;;5095849;28;20046;-68
2023/02/16 03:38:24;;;;;;;;;;;;;;;;;;5096032;28;19950;-67
2023/02/16 03:40:50;;;;;;;;;;;;;;;;;;5095647;28;20386;-67
2023/02/16 03:43:16;;;;;;;;;;;;;;;;;;5095658;28;19947;-66
2023/02/16 03:45:42;;;;;;;;;;;;;;;;;;5095639;28;20044;-68
2023/02/16 03:48:07;;;;;;;;;;;;;;;;;;5095898;28;19942;-66
2023/02/16 03:50:33;;;;;;;;;;;;;;;;;;5095546;28;19984;-67
2023/02/16 03:53:05;;;;;;;;;;;;;;;;;;5095448;28;20403;-65
2023/02/16 03:55:31;;;;;;;;;;;;;;;;;;5095466;28;20450;-67
2023/02/16 03:57:57;;;;;;;;;;;;;;;;;;5095380;28;19949;-67
2023/02/16 04:00:23;;;;;;;;;;;;;;;;;;5095336;28;19949;-67
2023/02/16 04:02:49;;;;;;;;;;;;;;;;;;5095265;28;20025;-67
2023/02/16 04:05:15;;;;;;;;;;;;;;;;;;5095792;28;19950;-66
2023/02/16 04:07:41;;;;;;;;;;;;;;;;;;5095175;28;19991;-66
2023/02/16 04:10:06;;;;;;;;;;;;;;;;;;5094914;28;20002;-66
2023/02/16 04:12:35;;;;;;;;;;;;;;;;;;5095372;28;19999;-67
2023/02/16 04:15:02;;;;;;;;;;;;;;;;;;5095275;28;20435;-67
2023/02/16 04:17:28;;;;;;;;;;;;;;;;;;5095078;28;20357;-68
2023/02/16 04:19:54;;;;;;;;;;;;;;;;;;5095510;28;19948;-67
2023/02/16 04:22:19;;;;;;;;;;;;;;;;;;5095141;28;19970;-67
2023/02/16 04:24:45;;;;;;;;;;;;;;;;;;5095368;28;19946;-66
2023/02/16 04:27:11;;;;;;;;;;;;;;;;;;5094738;28;19956;-66
2023/02/16 04:29:37;;;;;;;;;;;;;;;;;;5095053;28;20011;-66
2023/02/16 04:32:03;;;;;;;;;;;;;;;;;;5094937;28;19951;-66
2023/02/16 04:34:29;;;;;;;;;;;;;;;;;;5094735;28;19979;-66
2023/02/16 04:36:55;;;;;;;;;;;;;;;;;;5094927;28;19953;-65
2023/02/16 04:39:21;;;;;;;;;;;;;;;;;;5095174;28;20305;-66
2023/02/16 04:41:46;;;;;;;;;;;;;;;;;;5094793;28;20023;-67
2023/02/16 04:44:12;;;;;;;;;;;;;;;;;;5094526;28;19947;-67
2023/02/16 04:46:38;;;;;;;;;;;;;;;;;;5094737;28;19956;-66
2023/02/16 04:49:04;;;;;;;;;;;;;;;;;;5094662;28;20032;-67
2023/02/16 04:51:30;;;;;;;;;;;;;;;;;;5094373;28;19944;-67
2023/02/16 04:53:56;;;;;;;;;;;;;;;;;;5094928;28;19945;-67
2023/02/16 04:56:22;;;;;;;;;;;;;;;;;;5094318;28;19954;-67
2023/02/16 04:58:48;;;;;;;;;;;;;;;;;;5094246;28;19953;-65
2023/02/16 05:01:13;;;;;;;;;;;;;;;;;;5094409;28;20011;-66
2023/02/16 05:03:39;;;;;;;;;;;;;;;;;;5094176;28;19987;-66
2023/02/16 05:06:05;;;;;;;;;;;;;;;;;;5094125;28;19951;-66
2023/02/16 05:08:31;;;;;;;;;;;;;;;;;;5094108;28;19951;-66
2023/02/16 05:16:34;;;;;;;;;;;;;;;;;;5070283;28;19988;-67
2023/02/16 05:19:00;;;;;;;;;;;;;;;;;;5093992;28;19961;-66
2023/02/16 05:21:32;;;;;;;;;;;;;;;;;;5094176;28;19968;-67
2023/02/16 05:23:58;;;;;;;;;;;;;;;;;;5093986;28;20442;-67
2023/02/16 05:26:23;;;;;;;;;;;;;;;;;;5094455;28;19946;-67
2023/02/16 05:28:49;;;;;;;;;;;;;;;;;;5094135;28;19958;-67
2023/02/16 05:31:15;;;;;;;;;;;;;;;;;;5094134;28;19948;-67
2023/02/16 05:33:41;;;;;;;;;;;;;;;;;;5094055;28;19955;-67
2023/02/16 05:36:07;;;;;;;;;;;;;;;;;;5094343;28;20041;-66
2023/02/16 05:38:33;;;;;;;;;;;;;;;;;;5093174;28;19942;-67
2023/02/16 05:40:59;;;;;;;;;;;;;;;;;;5094250;28;20303;-66
2023/02/16 05:43:25;;;;;;;;;;;;;;;;;;5093951;28;19995;-66
2023/02/16 05:45:50;;;;;;;;;;;;;;;;;;5093735;28;19989;-66
2023/02/16 05:48:16;;;;;;;;;;;;;;;;;;5093688;28;19944;-67
2023/02/16 05:50:42;;;;;;;;;;;;;;;;;;5093950;28;19949;-66
2023/02/16 05:53:08;;;;;;;;;;;;;;;;;;5093936;28;19954;-67
2023/02/16 05:55:34;;;;;;;;;;;;;;;;;;5093607;28;20407;-66
2023/02/16 05:58:00;;;;;;;;;;;;;;;;;;5093593;28;19946;-66
2023/02/16 06:00:26;;;;;;;;;;;;;;;;;;5093558;28;19998;-66
2023/02/16 06:02:52;;;;;;;;;;;;;;;;;;5093513;28;20014;-66
2023/02/16 06:05:18;;;;;;;;;;;;;;;;;;5093796;28;20037;-65
2023/02/16 06:07:44;;;;;;;;;;;;;;;;;;5093719;28;19972;-65
2023/02/16 06:10:10;;;;;;;;;;;;;;;;;;5093300;28;19989;-67
2023/02/16 06:12:36;;;;;;;;;;;;;;;;;;5093701;28;19952;-66
2023/02/16 06:15:02;;;;;;;;;;;;;;;;;;5093301;28;19980;-66
2023/02/16 06:17:28;;;;;;;;;;;;;;;;;;5093422;28;19943;-67
2023/02/16 06:19:54;;;;;;;;;;;;;;;;;;5093673;28;19956;-67
2023/02/16 06:22:20;;;;;;;;;;;;;;;;;;5093337;28;19970;-66
2023/02/16 06:24:45;;;;;;;;;;;;;;;;;;5093932;28;20399;-64
2023/02/16 06:27:11;;;;;;;;;;;;;;;;;;5093575;28;19952;-66
2023/02/16 06:29:38;;;;;;;;;;;;;;;;;;5093278;28;19944;-67
2023/02/16 06:32:04;;;;;;;;;;;;;;;;;;5093938;28;19955;-66
2023/02/16 06:34:30;;;;;;;;;;;;;;;;;;5093257;28;19946;-66
2023/02/16 06:36:56;;;;;;;;;;;;;;;;;;5093488;28;19947;-66
2023/02/16 06:39:22;;;;;;;;;;;;;;;;;;5093492;28;19954;-66
2023/02/16 06:41:48;;;;;;;;;;;;;;;;;;5093668;28;19972;-66
2023/02/16 06:44:14;;;;;;;;;;;;;;;;;;5093162;28;19945;-66
2023/02/16 06:46:40;;;;;;;;;;;;;;;;;;5093434;28;19948;-65
2023/02/16 06:49:06;;;;;;;;;;;;;;;;;;5093404;28;19957;-66
2023/02/16 06:51:31;;;;;;;;;;;;;;;;;;5097243;28;19957;-66
2023/02/16 06:53:57;;;;;;;;;;;;;;;;;;5096668;28;19942;-67
2023/02/16 06:56:23;;;;;;;;;;;;;;;;;;5096607;28;19953;-66
2023/02/16 06:58:49;;;;;;;;;;;;;;;;;;5096563;28;19950;-67
2023/02/16 07:01:21;;;;;;;;;;;;;;;;;;5096739;28;19964;-66
2023/02/16 07:03:47;;;;;;;;;;;;;;;;;;5078096;28;19987;-66
2023/02/16 07:06:13;;;;;;;;;;;;;;;;;;5096423;28;19981;-67
2023/02/16 07:08:39;;;;;;;;;;;;;;;;;;5096414;28;19950;-66
2023/02/16 07:11:05;;;;;;;;;;;;;;;;;;5096067;28;19986;-67
2023/02/16 07:13:35;;;;;;;;;;;;;;;;;;5096266;28;20012;-67
2023/02/16 07:16:01;;;;;;;;;;;;;;;;;;5078159;28;19954;-67
2023/02/16 07:18:26;;;;;;;;;;;;;;;;;;5096737;28;20309;-67
2023/02/16 07:20:52;;;;;;;;;;;;;;;;;;5096365;28;20031;-67
2023/02/16 07:23:18;;;;;;;;;;;;;;;;;;5096132;28;19948;-66
2023/02/16 07:25:45;;;;;;;;;;;;;;;;;;5096340;28;19954;-66
2023/02/16 07:28:11;;;;;;;;;;;;;;;;;;5096600;28;20397;-66
2023/02/16 07:30:37;;;;;;;;;;;;;;;;;;5096230;28;19950;-67
2023/02/16 07:33:05;;;;;;;;;;;;;;;;;;5095911;28;20408;-66
2023/02/16 07:35:31;;;;;;;;;;;;;;;;;;5095905;28;20397;-66
2023/02/16 07:37:57;;;;;;;;;;;;;;;;;;5095831;28;20037;-67
2023/02/16 07:40:23;;;;;;;;;;;;;;;;;;5096330;28;19987;-66
2023/02/16 07:42:49;;;;;;;;;;;;;;;;;;5095688;28;19971;-67
2023/02/16 07:45:14;;;;;;;;;;;;;;;;;;5095950;28;19951;-67
2023/02/16 07:47:40;;;;;;;;;;;;;;;;;;5095668;28;19957;-66
2023/02/16 07:50:06;;;;;;;;;;;;;;;;;;5095869;28;20075;-66
2023/02/16 07:52:32;;;;;;;;;;;;;;;;;;5096369;28;19951;-66
2023/02/16 07:54:58;;;;;;;;;;;;;;;;;;5095482;28;19952;-67
2023/02/16 07:57:24;;;;;;;;;;;;;;;;;;5095420;28;20465;-66
2023/02/16 07:59:50;;;;;;;;;;;;;;;;;;5094964;28;19952;-67
2023/02/16 08:02:16;;;;;;;;;;;;;;;;;;5095862;28;19970;-67
2023/02/16 08:04:42;;;;;;;;;;;;;;;;;;5095649;28;19995;-67
2023/02/16 08:07:08;;;;;;;;;;;;;;;;;;5099780;28;19964;-66
2023/02/16 08:09:34;;;;;;;;;;;;;;;;;;5098106;27;20414;-65
2023/02/16 08:12:00;;;;;;;;;;;;;;;;;;5115786;28;19958;-65
2023/02/16 08:14:26;;;;;;;;;;;;;;;;;;5115371;28;19965;-66
2023/02/16 08:16:52;;;;;;;;;;;;;;;;;;5115414;27;19990;-65
2023/02/16 08:19:17;;;;;;;;;;;;;;;;;;5134515;27;20031;-67
2023/02/16 08:21:48;;;;;;;;;;;;;;;;;;5136207;27;19971;-65
2023/02/16 08:24:14;;;;;;;;;;;;;;;;;;5133902;27;19957;-68
2023/02/16 08:26:40;;;;;;;;;;;;;;;;;;5135803;27;19960;-64
2023/02/16 08:29:05;;;;;;;;;;;;;;;;;;5135082;27;19952;-67
2023/02/16 08:31:33;;;;;;;;;;;;;;;;;;5135762;27;19948;-68
2023/02/16 08:33:59;;;;;;;;;;;;;;;;;;5119636;27;20012;-68
2023/02/16 08:36:25;;;;;;;;;;;;;;;;;;5114676;28;20317;-63
2023/02/16 08:38:51;;;;;;;;;;;;;;;;;;5127324;27;19997;-66
2023/02/16 08:41:17;;;;;;;;;;;;;;;;;;5135536;27;20334;-67
2023/02/16 08:43:43;;;;;;;;;;;;;;;;;;5135925;27;19952;-67
2023/02/16 08:46:09;;;;;;;;;;;;;;;;;;5135200;27;19948;-66
2023/02/16 08:48:35;;;;;;;;;;;;;;;;;;5135767;27;19957;-69
2023/02/16 08:51:02;;;;;;;;;;;;;;;;;;5135412;27;19946;-66
2023/02/16 08:53:32;;;;;;;;;;;;;;;;;;5135477;27;19949;-67
2023/02/16 08:55:58;;;;;;;;;;;;;;;;;;5135304;27;19953;-68
2023/02/16 08:58:25;;;;;;;;;;;;;;;;;;5133461;27;19957;-66
2023/02/16 09:00:51;;;;;;;;;;;;;;;;;;5123296;27;20058;-67
2023/02/16 09:03:20;;;;;;;;;;;;;;;;;;5134130;27;19957;-67
2023/02/16 09:05:46;;;;;;;;;;;;;;;;;;5122447;27;20374;-64
2023/02/16 09:08:13;;;;;;;;;;;;;;;;;;5135068;27;19996;-66
2023/02/16 09:10:39;;;;;;;;;;;;;;;;;;5133032;27;19979;-68
2023/02/16 09:13:04;;;;;;;;;;;;;;;;;;5134760;27;20438;-69
2023/02/16 09:15:30;;;;;;;;;;;;;;;;;;5115980;27;19957;-66
2023/02/16 09:17:56;;;;;;;;;;;;;;;;;;5119961;27;20055;-67
2023/02/16 09:20:22;;;;;;;;;;;;;;;;;;5114958;28;19957;-68
2023/02/16 09:22:48;;;;;;;;;;;;;;;;;;5122290;27;19964;-66
2023/02/16 09:25:15;;;;;;;;;;;;;;;;;;5126975;27;20440;-66
2023/02/16 09:27:42;;;;;;;;;;;;;;;;;;5114136;28;19963;-66
2023/02/16 09:30:08;;;;;;;;;;;;;;;;;;5096239;28;20048;-66
2023/02/16 09:32:35;;;;;;;;;;;;;;;;;;5114512;28;19951;-64
2023/02/16 09:35:01;;;;;;;;;;;;;;;;;;5118230;28;19954;-67
2023/02/16 09:37:27;;;;;;;;;;;;;;;;;;5112386;28;19951;-66
2023/02/16 09:39:53;;;;;;;;;;;;;;;;;;5113374;28;19947;-66
2023/02/16 09:42:19;;;;;;;;;;;;;;;;;;5114001;28;19963;-66
2023/02/16 09:44:45;;;;;;;;;;;;;;;;;;5114127;28;19987;-66
2023/02/16 09:47:11;;;;;;;;;;;;;;;;;;5114166;28;19959;-66
2023/02/16 09:49:37;;;;;;;;;;;;;;;;;;5122846;28;20008;-66
2023/02/16 09:52:03;;;;;;;;;;;;;;;;;;5115365;28;20320;-67
2023/02/16 09:54:29;;;;;;;;;;;;;;;;;;5114815;28;19951;-67
2023/02/16 09:56:55;;;;;;;;;;;;;;;;;;5113842;28;19949;-66
2023/02/16 09:59:21;;;;;;;;;;;;;;;;;;5123495;28;19950;-69
2023/02/16 10:01:47;;;;;;;;;;;;;;;;;;5113843;28;19976;-69
2023/02/16 10:04:14;;;;;;;;;;;;;;;;;;5119617;28;20043;-68
2023/02/16 10:06:39;;;;;;;;;;;;;;;;;;5135002;28;19966;-67
2023/02/16 10:09:06;;;;;;;;;;;;;;;;;;5134717;28;19953;-66
2023/02/16 10:11:40;;;;;;;;;;;;;;;;;;5134117;28;19991;-65
2023/02/16 10:14:06;;;;;;;;;;;;;;;;;;5134592;28;19968;-66
2023/02/16 10:16:32;;;;;;;;;;;;;;;;;;5134420;28;19971;-64
2023/02/16 10:18:58;;;;;;;;;;;;;;;;;;5134633;28;19956;-64
2023/02/16 10:21:24;;;;;;;;;;;;;;;;;;5118142;28;19981;-69
2023/02/16 10:23:50;;;;;;;;;;;;;;;;;;5115897;28;20004;-68
2023/02/16 10:26:16;;;;;;;;;;;;;;;;;;5117578;28;20389;-68
2023/02/16 10:28:42;;;;;;;;;;;;;;;;;;5117832;28;20040;-68
2023/02/16 10:31:08;;;;;;;;;;;;;;;;;;5117819;28;20384;-68
2023/02/16 10:33:35;;;;;;;;;;;;;;;;;;5117465;28;19951;-69
2023/02/16 10:36:01;;;;;;;;;;;;;;;;;;5121692;27;20401;-67
2023/02/16 10:38:26;;;;;;;;;;;;;;;;;;5134340;27;19962;-66
2023/02/16 10:40:52;;;;;;;;;;;;;;;;;;5136713;27;19952;-69
2023/02/16 10:43:19;;;;;;;;;;;;;;;;;;5137954;27;19968;-70
2023/02/16 10:45:45;;;;;;;;;;;;;;;;;;5133455;27;21511;-65
2023/02/16 10:48:12;;;;;;;;;;;;;;;;;;5138095;27;19971;-67
2023/02/16 10:50:38;;;;;;;;;;;;;;;;;;5136516;27;19954;-69
2023/02/16 10:53:03;;;;;;;;;;;;;;;;;;5131013;27;19955;-71
2023/02/16 10:55:29;;;;;;;;;;;;;;;;;;5126534;27;20150;-68
2023/02/16 10:57:55;;;;;;;;;;;;;;;;;;5137346;27;20050;-66
2023/02/16 11:00:21;;;;;;;;;;;;;;;;;;5137808;27;20309;-66
2023/02/16 11:02:47;;;;;;;;;;;;;;;;;;5137007;27;19971;-66
2023/02/16 11:05:13;;;;;;;;;;;;;;;;;;5135422;27;19980;-65
2023/02/16 11:07:39;;;;;;;;;;;;;;;;;;5137399;27;19996;-66
2023/02/16 11:10:06;;;;;;;;;;;;;;;;;;5126930;27;20024;-66
2023/02/16 11:12:32;;;;;;;;;;;;;;;;;;5133005;27;19959;-66
2023/02/16 11:14:59;;;;;;;;;;;;;;;;;;5135388;27;20043;-67
2023/02/16 11:17:25;;;;;;;;;;;;;;;;;;5126906;27;19950;-69
2023/02/16 11:19:51;;;;;;;;;;;;;;;;;;5124162;27;19957;-70
2023/02/16 11:22:17;;;;;;;;;;;;;;;;;;5137681;27;20415;-67
2023/02/16 11:24:43;;;;;;;;;;;;;;;;;;5121600;27;19964;-66
2023/02/16 11:27:08;;;;;;;;;;;;;;;;;;5114781;27;19990;-66
2023/02/16 11:29:34;;;;;;;;;;;;;;;;;;5118187;27;20429;-66
2023/02/16 11:32:00;;;;;;;;;;;;;;;;;;5119803;27;20040;-67
2023/02/16 11:34:26;;;;;;;;;;;;;;;;;;5119700;27;20412;-66
2023/02/16 11:36:52;;;;;;;;;;;;;;;;;;5115180;28;19957;-68
2023/02/16 11:39:18;;;;;;;;;;;;;;;;;;5118943;27;20376;-65
2023/02/16 11:41:44;;;;;;;;;;;;;;;;;;5111874;28;19966;-65
2023/02/16 11:44:10;;;;;;;;;;;;;;;;;;5115009;28;20319;-66
2023/02/16 11:46:36;;;;;;;;;;;;;;;;;;5115054;28;19943;-65
2023/02/16 11:49:02;;;;;;;;;;;;;;;;;;5116069;28;19951;-65
2023/02/16 11:51:28;;;;;;;;;;;;;;;;;;5097693;28;19977;-65
2023/02/16 11:53:54;;;;;;;;;;;;;;;;;;5115881;28;20028;-66
2023/02/16 11:56:20;;;;;;;;;;;;;;;;;;5116110;28;19951;-66
2023/02/16 11:58:46;;;;;;;;;;;;;;;;;;5115832;28;19950;-66
2023/02/16 12:01:12;;;;;;;;;;;;;;;;;;5115999;28;19982;-66
2023/02/16 12:03:38;;;;;;;;;;;;;;;;;;5116290;28;20442;-65
2023/02/16 12:06:04;;;;;;;;;;;;;;;;;;5115699;28;20296;-66
2023/02/16 12:08:29;;;;;;;;;;;;;;;;;;5115610;28;19956;-65
2023/02/16 12:10:55;;;;;;;;;;;;;;;;;;5097066;28;19988;-66
2023/02/16 12:13:21;;;;;;;;;;;;;;;;;;5115898;28;19964;-65
2023/02/16 12:15:47;;;;;;;;;;;;;;;;;;5115536;28;19993;-66
2023/02/16 12:18:13;;;;;;;;;;;;;;;;;;5116018;28;20393;-66
2023/02/16 12:20:40;;;;;;;;;;;;;;;;;;5115399;28;19959;-66
2023/02/16 12:23:06;;;;;;;;;;;;;;;;;;5115202;28;19996;-66
2023/02/16 12:25:32;;;;;;;;;;;;;;;;;;5115573;28;19954;-66
2023/02/16 12:27:58;;;;;;;;;;;;;;;;;;5115246;28;20321;-66
2023/02/16 12:30:25;;;;;;;;;;;;;;;;;;5115231;28;19957;-66
2023/02/16 12:32:50;;;;;;;;;;;;;;;;;;5115451;28;19954;-66
2023/02/16 12:35:16;;;;;;;;;;;;;;;;;;5115110;28;19949;-66
2023/02/16 12:37:42;;;;;;;;;;;;;;;;;;5115621;28;20386;-66
2023/02/16 12:40:08;;;;;;;;;;;;;;;;;;5115024;28;19947;-66
2023/02/16 12:42:34;;;;;;;;;;;;;;;;;;5114871;28;19977;-65
2023/02/16 12:45:00;;;;;;;;;;;;;;;;;;5115238;28;19953;-65
2023/02/16 12:47:26;;;;;;;;;;;;;;;;;;5114768;28;19965;-66
2023/02/16 12:49:52;;;;;;;;;;;;;;;;;;5114887;28;19951;-66
2023/02/16 12:52:18;;;;;;;;;;;;;;;;;;5115080;28;19951;-66
2023/02/16 12:54:44;;;;;;;;;;;;;;;;;;5115008;28;19997;-66
2023/02/16 12:57:10;;;;;;;;;;;;;;;;;;5114945;28;19953;-66
2023/02/16 12:59:37;;;;;;;;;;;;;;;;;;5114958;28;20035;-66
2023/02/16 13:02:03;;;;;;;;;;;;;;;;;;5115213;28;20005;-66
2023/02/16 13:04:29;;;;;;;;;;;;;;;;;;5114655;28;19947;-66
2023/02/16 13:06:55;;;;;;;;;;;;;;;;;;5114530;28;20285;-66
2023/02/16 13:09:21;;;;;;;;;;;;;;;;;;5114355;28;20006;-66
2023/02/16 13:11:47;;;;;;;;;;;;;;;;;;5114821;28;20389;-66
2023/02/16 13:14:12;;;;;;;;;;;;;;;;;;5114478;27;19970;-67
2023/02/16 13:16:38;;;;;;;;;;;;;;;;;;5120300;27;19956;-70
2023/02/16 13:19:04;;;;;;;;;;;;;;;;;;5135130;27;20002;-67
2023/02/16 13:21:31;;;;;;;;;;;;;;;;;;5134773;27;19974;-70
2023/02/16 13:23:57;;;;;;;;;;;;;;;;;;5105412;28;19958;-70
2023/02/16 13:26:23;;;;;;;;;;;;;;;;;;5114817;27;19951;-68
2023/02/16 13:28:50;;;;;;;;;;;;;;;;;;5114312;28;19963;-69
2023/02/16 13:31:16;;;;;;;;;;;;;;;;;;5114152;28;20334;-68
2023/02/16 13:33:43;;;;;;;;;;;;;;;;;;5114437;28;19954;-68
2023/02/16 13:36:09;;;;;;;;;;;;;;;;;;5114434;28;19944;-68
2023/02/16 13:38:35;;;;;;;;;;;;;;;;;;5114305;28;19961;-67
2023/02/16 13:41:01;;;;;;;;;;;;;;;;;;5113883;28;19972;-69
2023/02/16 13:43:27;;;;;;;;;;;;;;;;;;5114260;28;19955;-69
2023/02/16 13:45:53;;;;;;;;;;;;;;;;;;5115001;28;19980;-69
2023/02/16 13:48:20;;;;;;;;;;;;;;;;;;5114119;28;19950;-67
2023/02/16 13:50:45;;;;;;;;;;;;;;;;;;5114302;28;19952;-66
2023/02/16 13:53:12;;;;;;;;;;;;;;;;;;5114546;28;20348;-66
2023/02/16 13:55:38;;;;;;;;;;;;;;;;;;5121195;28;19949;-66
2023/02/16 13:58:04;;;;;;;;;;;;;;;;;;5134823;27;20330;-65
2023/02/16 14:00:30;;;;;;;;;;;;;;;;;;5138996;27;19953;-66
2023/02/16 14:02:57;;;;;;;;;;;;;;;;;;5138577;27;19965;-66
2023/02/16 14:05:23;;;;;;;;;;;;;;;;;;5135220;27;19959;-67
2023/02/16 14:07:49;;;;;;;;;;;;;;;;;;5117992;28;19957;-65
2023/02/16 14:10:15;;;;;;;;;;;;;;;;;;5118002;27;19985;-64
2023/02/16 14:12:41;;;;;;;;;;;;;;;;;;5117965;27;20014;-66
2023/02/16 14:15:06;;;;;;;;;;;;;;;;;;5117535;27;20010;-65
2023/02/16 14:17:32;;;;;;;;;;;;;;;;;;5117914;28;19952;-71
2023/02/16 14:19:58;;;;;;;;;;;;;;;;;;5135657;27;19959;-68
2023/02/16 14:22:25;;;;;;;;;;;;;;;;;;5135032;27;19979;-70
2023/02/16 14:24:51;;;;;;;;;;;;;;;;;;5138573;27;19960;-70
2023/02/16 14:27:17;;;;;;;;;;;;;;;;;;5138188;27;20065;-67
2023/02/16 14:29:43;;;;;;;;;;;;;;;;;;5138684;27;20314;-67
2023/02/16 14:32:09;;;;;;;;;;;;;;;;;;5128416;27;19990;-67
2023/02/16 14:34:35;;;;;;;;;;;;;;;;;;5117551;28;19958;-67
2023/02/16 14:37:01;;;;;;;;;;;;;;;;;;5116528;27;19953;-66
2023/02/16 14:39:28;;;;;;;;;;;;;;;;;;5117746;27;20325;-66
2023/02/16 14:41:54;;;;;;;;;;;;;;;;;;5121853;27;20472;-67
2023/02/16 14:44:20;;;;;;;;;;;;;;;;;;5137035;27;19956;-67
2023/02/16 14:46:46;;;;;;;;;;;;;;;;;;5134977;27;20794;-67
2023/02/16 14:49:12;;;;;;;;;;;;;;;;;;5116734;28;19954;-66
2023/02/16 14:51:38;;;;;;;;;;;;;;;;;;5120893;27;19981;-67
2023/02/16 14:54:04;;;;;;;;;;;;;;;;;;5127946;27;19982;-70
2023/02/16 14:56:30;;;;;;;;;;;;;;;;;;5117350;27;20045;-69
2023/02/16 14:58:56;;;;;;;;;;;;;;;;;;5122150;27;19992;-67
2023/02/16 15:01:22;;;;;;;;;;;;;;;;;;5137420;27;20072;-68
2023/02/16 15:03:49;;;;;;;;;;;;;;;;;;5138038;27;20068;-68
2023/02/16 15:06:15;;;;;;;;;;;;;;;;;;5137525;27;19947;-69
2023/02/16 15:08:41;;;;;;;;;;;;;;;;;;5137694;27;19961;-65
2023/02/16 15:11:07;;;;;;;;;;;;;;;;;;5125259;27;20022;-69
2023/02/16 15:13:33;;;;;;;;;;;;;;;;;;5120195;27;19969;-68
2023/02/16 15:15:59;;;;;;;;;;;;;;;;;;5123478;27;19960;-66
2023/02/16 15:18:25;;;;;;;;;;;;;;;;;;5128791;27;19955;-66
2023/02/16 15:20:51;;;;;;;;;;;;;;;;;;5122096;27;20393;-65
2023/02/16 15:23:18;;;;;;;;;;;;;;;;;;5116754;28;19962;-66
2023/02/16 15:25:43;;;;;;;;;;;;;;;;;;5116356;28;19985;-66
2023/02/16 15:28:09;;;;;;;;;;;;;;;;;;5116484;28;19957;-69
2023/02/16 15:30:35;;;;;;;;;;;;;;;;;;5116865;27;20406;-69
2023/02/16 15:33:01;;;;;;;;;;;;;;;;;;5116630;28;19955;-67
2023/02/16 15:35:27;;;;;;;;;;;;;;;;;;5116382;28;19951;-67
2023/02/16 15:37:53;;;;;;;;;;;;;;;;;;5125257;27;20333;-66
2023/02/16 15:40:19;;;;;;;;;;;;;;;;;;5117876;27;19952;-67
2023/02/16 15:42:45;;;;;;;;;;;;;;;;;;5125573;27;19970;-66
2023/02/16 15:45:11;;;;;;;;;;;;;;;;;;5136991;27;20000;-67
2023/02/16 15:47:37;;;;;;;;;;;;;;;;;;5136666;27;19956;-67
2023/02/16 15:50:03;;;;;;;;;;;;;;;;;;5128770;27;19955;-67
2023/02/16 15:52:29;;;;;;;;;;;;;;;;;;5122570;27;19991;-70
2023/02/16 15:54:55;;;;;;;;;;;;;;;;;;5133527;27;19991;-70
2023/02/16 15:57:21;;;;;;;;;;;;;;;;;;5123314;27;19961;-69
2023/02/16 15:59:47;;;;;;;;;;;;;;;;;;5136096;27;19956;-69
2023/02/16 16:02:13;;;;;;;;;;;;;;;;;;5134757;27;19976;-69
2023/02/16 16:04:39;;;;;;;;;;;;;;;;;;5136225;27;19950;-69
2023/02/16 16:07:06;;;;;;;;;;;;;;;;;;5136473;27;19949;-69
2023/02/16 16:09:31;;;;;;;;;;;;;;;;;;5136539;27;20300;-70
2023/02/16 16:11:57;;;;;;;;;;;;;;;;;;5136774;27;19949;-70
2023/02/16 16:14:23;;;;;;;;;;;;;;;;;;5131280;27;19970;-74
2023/02/16 16:16:50;;;;;;;;;;;;;;;;;;5121198;27;20045;-70
2023/02/16 16:19:16;;;;;;;;;;;;;;;;;;5118052;27;19957;-69
2023/02/16 16:21:42;;;;;;;;;;;;;;;;;;5115534;28;20497;-68
2023/02/16 16:24:08;;;;;;;;;;;;;;;;;;5115086;27;20022;-67
2023/02/16 16:26:34;;;;;;;;;;;;;;;;;;5126947;27;19954;-67
2023/02/16 16:29:00;;;;;;;;;;;;;;;;;;5115882;28;20388;-67
2023/02/16 16:31:26;;;;;;;;;;;;;;;;;;5126924;27;19958;-69
2023/02/16 16:33:52;;;;;;;;;;;;;;;;;;5136011;27;20353;-67
2023/02/16 16:36:18;;;;;;;;;;;;;;;;;;5136216;27;19994;-68
2023/02/16 16:38:44;;;;;;;;;;;;;;;;;;5135522;27;19988;-67
2023/02/16 16:41:10;;;;;;;;;;;;;;;;;;5117124;27;20036;-68
2023/02/16 16:43:36;;;;;;;;;;;;;;;;;;5135790;27;20032;-68
2023/02/16 16:46:02;;;;;;;;;;;;;;;;;;5136234;27;20003;-68
2023/02/16 16:48:28;;;;;;;;;;;;;;;;;;5135494;27;19944;-68
2023/02/16 16:50:54;;;;;;;;;;;;;;;;;;5135972;27;20297;-68
2023/02/16 16:53:20;;;;;;;;;;;;;;;;;;5135657;27;19946;-68
2023/02/16 16:55:45;;;;;;;;;;;;;;;;;;5135880;27;20017;-67
2023/02/16 16:58:11;;;;;;;;;;;;;;;;;;5135543;27;19949;-68
2023/02/16 17:00:37;;;;;;;;;;;;;;;;;;5135274;27;19970;-68
2023/02/16 17:03:03;;;;;;;;;;;;;;;;;;5135066;27;20340;-68
2023/02/16 17:05:29;;;;;;;;;;;;;;;;;;5135183;27;19956;-69
2023/02/16 17:07:55;;;;;;;;;;;;;;;;;;5135089;27;20029;-68
2023/02/16 17:10:21;;;;;;;;;;;;;;;;;;5135066;27;19980;-68
2023/02/16 17:12:47;;;;;;;;;;;;;;;;;;5135345;27;19950;-68
2023/02/16 17:15:13;;;;;;;;;;;;;;;;;;5135120;27;19992;-68
2023/02/16 17:17:39;;;;;;;;;;;;;;;;;;5135199;27;19961;-68
2023/02/16 17:20:05;;;;;;;;;;;;;;;;;;5135506;27;20394;-68